Time;durP1;ratioP1;P1;durP2;ratioP2;P2;SDS_P1;SDS_P2;PMS_P1;PMS_P2;Temp;Humidity;BMP_temperature;BMP_pressure;BME280_temperature;BME280_humidity;BME280_pressure;Samples;Min_cycle;Max_cycle;Signal;HPM_P1;HPM_P2
2022/02/06 00:03:56;;;;;;;;;;;;;;;;;;;;;
2022/02/06 00:09:04;;;;;;;12.10;5.00;;;;;;;-0.37;78.77;98760.65;220673;1273;22574;-72
2022/02/06 00:14:06;;;;;;;12.40;5.00;;;;;;;-0.33;78.88;98751.30;220397;1273;22633;-73
2022/02/06 00:19:11;;;;;;;8.60;4.70;;;;;;;-0.28;78.76;98752.11;220540;1273;24402;-73
2022/02/06 00:25:00;;;;;;;12.30;5.40;;;;;;;-0.23;78.50;98751.13;220337;1273;22576;-73
2022/02/06 00:43:00;;;;;;;18.00;6.80;;;;;;;-0.30;78.40;98736.34;219492;1281;24908;-73
2022/02/06 00:48:22;;;;;;;16.60;6.00;;;;;;;-0.39;78.18;98734.52;219646;1281;24299;-72
2022/02/06 00:53:33;;;;;;;13.60;6.20;;;;;;;-0.47;78.34;98729.98;219655;1278;24326;-74
2022/02/06 00:58:39;;;;;;;13.90;6.80;;;;;;;-0.49;78.73;98718.66;219725;1275;22586;-74
2022/02/06 01:03:46;;;;;;;12.20;5.60;;;;;;;-0.47;78.47;98714.44;220103;1275;22796;-73
2022/02/06 01:08:52;;;;;;;10.50;4.80;;;;;;;-0.44;78.59;98703.15;220448;1273;22604;-73
2022/02/06 01:14:10;;;;;;;11.40;5.60;;;;;;;-0.41;78.70;98687.48;220315;1274;25533;-73
2022/02/06 01:19:40;;;;;;;12.10;5.60;;;;;;;-0.35;78.67;98680.63;220118;1274;24285;-73
2022/02/06 01:25:09;;;;;;;9.80;5.40;;;;;;;-0.29;78.46;98673.18;220230;1273;24609;-73
2022/02/06 01:30:42;;;;;;;12.10;5.90;;;;;;;-0.23;78.38;98653.39;220520;1273;22693;-73
2022/02/06 01:36:33;;;;;;;9.00;4.80;;;;;;;-0.15;78.17;98648.12;220223;1274;22666;-73
2022/02/06 01:41:49;;;;;;;8.90;4.60;;;;;;;-0.09;78.20;98643.19;220412;1274;22621;-73
2022/02/06 02:03:20;;;;;;;8.10;4.60;;;;;;;0.10;77.81;98617.82;220365;1274;22555;-72
2022/02/06 02:19:48;;;;;;;7.10;3.40;;;;;;;0.28;77.62;98593.68;220057;1274;26455;-73
2022/02/06 02:47:20;;;;;;;4.80;2.70;;;;;;;0.65;77.04;98554.55;220555;1274;23066;-72
2022/02/06 02:53:41;;;;;;;6.20;2.80;;;;;;;0.70;77.03;98552.11;220244;1274;22556;-73
2022/02/06 03:04:46;;;;;;;3.50;2.10;;;;;;;0.82;76.68;98544.18;220333;1274;22551;-72
2022/02/06 03:10:15;;;;;;;4.60;2.50;;;;;;;0.89;76.55;98532.02;220329;1274;22585;-73
2022/02/06 03:16:01;;;;;;;4.10;2.30;;;;;;;0.97;76.17;98519.80;220411;1273;25408;-73
2022/02/06 03:21:19;;;;;;;5.10;2.40;;;;;;;1.04;76.06;98518.95;220310;1274;22546;-73
2022/02/06 03:26:50;;;;;;;;;;;;;;;;;;;;;
2022/02/06 03:32:12;;;;;;;3.00;1.80;;;;;;;1.13;75.89;98497.86;220405;1274;24284;-73
2022/02/06 03:37:15;;;;;;;5.70;2.10;;;;;;;1.19;75.78;98501.77;220311;1274;24308;-73
2022/02/06 03:43:37;;;;;;;4.50;1.60;;;;;;;1.25;75.74;98499.08;220495;1273;24276;-73
2022/02/06 03:53:29;;;;;;;3.00;1.70;;;;;;;1.37;75.19;98484.23;220505;1273;22542;-73
2022/02/06 03:58:41;;;;;;;2.90;1.50;;;;;;;1.40;74.94;98476.89;220303;1273;25273;-72
2022/02/06 04:03:50;;;;;;;4.30;1.80;;;;;;;1.40;74.80;98466.28;220203;1273;25350;-73
2022/02/06 04:08:55;;;;;;;4.90;1.70;;;;;;;1.44;74.87;98456.59;220443;1273;26348;-73
2022/02/06 04:14:17;;;;;;;4.90;2.20;;;;;;;1.47;74.34;98447.30;220509;1273;22546;-73
2022/02/06 04:19:35;;;;;;;3.70;1.60;;;;;;;1.49;74.64;98431.86;220310;1273;24237;-73
2022/02/06 04:24:37;;;;;;;3.10;1.70;;;;;;;1.49;74.57;98424.65;220257;1274;23128;-72
2022/02/06 04:29:51;;;;;;;4.00;1.50;;;;;;;1.52;74.82;98414.23;220349;1273;25431;-74
2022/02/06 04:35:18;;;;;;;4.60;1.50;;;;;;;1.54;74.42;98409.89;220386;1273;25265;-73
2022/02/06 05:19:40;;;;;;;3.40;1.30;;;;;;;1.52;74.05;98345.42;220321;1273;25264;-73
2022/02/06 05:30:18;;;;;;;2.60;1.50;;;;;;;1.53;74.02;98332.52;220110;1274;25201;-73
2022/02/06 05:35:21;;;;;;;4.10;1.60;;;;;;;1.55;73.91;98325.05;220322;1273;26470;-73
2022/02/06 05:40:27;;;;;;;3.70;1.50;;;;;;;1.55;73.93;98320.35;220171;1273;22541;-73
2022/02/06 05:45:29;;;;;;;2.90;1.50;;;;;;;1.53;73.84;98307.96;220443;1273;22715;-72
2022/02/06 05:50:38;;;;;;;6.10;1.50;;;;;;;1.49;73.58;98296.72;220183;1273;24153;-72
2022/02/06 05:55:48;;;;;;;5.10;1.40;;;;;;;1.47;73.55;98294.41;220465;1273;22566;-72
2022/02/06 06:00:50;;;;;;;3.70;1.50;;;;;;;1.48;73.50;98300.66;220373;1273;22560;-73
2022/02/06 06:05:58;;;;;;;5.20;1.80;;;;;;;1.47;73.10;98289.70;220377;1273;24232;-73
2022/02/06 06:11:06;;;;;;;3.80;1.50;;;;;;;1.49;73.30;98274.84;220382;1273;25315;-73
2022/02/06 06:16:09;;;;;;;4.50;1.80;;;;;;;1.51;73.13;98277.35;220354;1273;26563;-73
2022/02/06 06:21:12;;;;;;;4.80;2.20;;;;;;;1.52;73.45;98279.02;220595;1273;23355;-72
2022/02/06 06:26:17;;;;;;;3.10;1.90;;;;;;;1.53;73.53;98278.65;220253;1274;26342;-73
2022/02/06 06:31:19;;;;;;;5.00;2.20;;;;;;;1.53;72.88;98282.56;220407;1273;23081;-72
2022/02/06 06:36:22;;;;;;;4.10;2.00;;;;;;;1.55;72.97;98276.36;220374;1274;22547;-72
2022/02/06 06:41:24;;;;;;;5.00;1.50;;;;;;;1.52;72.74;98264.02;220322;1274;22586;-73
2022/02/06 06:46:27;;;;;;;4.50;2.00;;;;;;;1.50;73.02;98259.61;220240;1273;22558;-73
2022/02/06 06:51:34;;;;;;;4.80;2.20;;;;;;;1.47;73.25;98260.30;220277;1273;22565;-71
2022/02/06 06:56:44;;;;;;;6.30;2.40;;;;;;;1.48;73.20;98250.14;220424;1273;23142;-73
2022/02/06 07:01:50;;;;;;;5.60;2.00;;;;;;;1.52;72.93;98246.54;220398;1273;24320;-73
2022/02/06 07:06:52;;;;;;;4.60;2.00;;;;;;;1.58;73.07;98243.55;220458;1273;22545;-73
2022/02/06 07:11:55;;;;;;;3.60;1.60;;;;;;;1.62;72.63;98243.40;220421;1273;25420;-72
2022/02/06 07:17:00;;;;;;;4.00;1.90;;;;;;;1.64;72.90;98242.13;220518;1273;24292;-73
2022/02/06 07:22:03;;;;;;;4.80;2.10;;;;;;;1.71;72.66;98236.23;220475;1273;25370;-74
2022/02/06 07:32:22;;;;;;;3.40;2.10;;;;;;;1.99;72.56;98232.22;220226;1273;25560;-73
2022/02/06 07:37:27;;;;;;;4.40;2.10;;;;;;;2.09;72.10;98227.75;220650;1273;22570;-73
2022/02/06 07:42:33;;;;;;;5.40;2.20;;;;;;;2.16;71.73;98226.08;220385;1273;22648;-72
2022/02/06 07:47:45;;;;;;;6.00;2.50;;;;;;;2.24;71.05;98231.73;220271;1273;22580;-73
2022/02/06 07:52:48;;;;;;;4.90;2.50;;;;;;;2.31;71.07;98231.54;220284;1273;22610;-73
2022/02/06 07:57:50;;;;;;;6.40;2.50;;;;;;;2.36;71.06;98235.14;220494;1273;22563;-72
2022/02/06 08:03:10;;;;;;;5.70;2.00;;;;;;;2.41;70.97;98221.38;220754;1272;22690;-73
2022/02/06 08:08:14;;;;;;;7.20;2.50;;;;;;;2.44;70.62;98219.58;220440;1273;23346;-72
2022/02/06 08:13:38;;;;;;;5.30;2.20;;;;;;;2.47;70.50;98218.27;220556;1273;23986;-72
2022/02/06 08:18:43;;;;;;;4.90;2.00;;;;;;;2.49;70.67;98207.98;220391;1273;22633;-73
2022/02/06 08:23:45;;;;;;;2.90;1.80;;;;;;;2.55;70.58;98198.21;220640;1273;25274;-72
2022/02/06 08:28:47;;;;;;;4.70;1.90;;;;;;;2.66;70.47;98190.05;220160;1273;22556;-72
2022/02/06 08:33:49;;;;;;;4.10;2.00;;;;;;;2.80;69.48;98185.48;220237;1273;23018;-73
2022/02/06 08:38:58;;;;;;;7.80;2.80;;;;;;;2.91;69.33;98180.60;220399;1273;25379;-72
2022/02/06 08:44:20;;;;;;;5.50;2.20;;;;;;;2.99;69.66;98171.61;220328;1273;25426;-72
2022/02/06 08:49:26;;;;;;;5.40;2.40;;;;;;;3.05;68.63;98165.25;220306;1273;22568;-73
2022/02/06 08:54:29;;;;;;;4.20;2.00;;;;;;;3.08;67.72;98163.04;220178;1273;22679;-72
2022/02/06 08:59:47;;;;;;;5.60;2.60;;;;;;;3.10;68.31;98154.80;220492;1273;24117;-72
2022/02/06 09:04:49;;;;;;;5.40;2.30;;;;;;;3.13;67.49;98150.01;220234;1273;22531;-73
2022/02/06 09:09:58;;;;;;;5.20;2.40;;;;;;;3.15;67.77;98144.87;220489;1272;22610;-74
2022/02/06 09:15:00;;;;;;;3.70;2.40;;;;;;;3.18;67.97;98140.02;220350;1273;22577;-72
2022/02/06 09:20:03;;;;;;;4.60;1.90;;;;;;;3.21;67.47;98127.91;220373;1273;26455;-73
2022/02/06 09:25:07;;;;;;;4.40;2.10;;;;;;;3.20;67.44;98127.13;220326;1273;22573;-72
2022/02/06 09:30:15;;;;;;;3.30;2.20;;;;;;;3.21;67.82;98124.38;220328;1273;22597;-72
2022/02/06 09:35:20;;;;;;;4.80;2.40;;;;;;;3.22;67.72;98111.46;220542;1273;26597;-72
2022/02/06 09:40:25;;;;;;;5.70;2.80;;;;;;;3.23;67.59;98103.58;220421;1273;22566;-73
2022/02/06 09:45:48;;;;;;;5.60;2.60;;;;;;;3.24;67.98;98096.76;220407;1273;26828;-72
2022/02/06 09:50:51;;;;;;;7.90;3.10;;;;;;;3.27;67.86;98091.43;220265;1273;22727;-72
2022/02/06 09:56:02;;;;;;;4.50;2.80;;;;;;;3.28;67.49;98074.23;220177;1273;23187;-73
2022/02/06 10:01:13;;;;;;;;;;;;;;;3.29;67.88;98070.36;220577;1273;22541;-72
2022/02/06 10:06:31;;;;;;;8.00;2.90;;;;;;;3.36;68.32;98065.05;220564;1273;22615;-71
2022/02/06 10:11:41;;;;;;;6.30;3.00;;;;;;;3.46;68.28;98046.77;220415;1273;25329;-72
2022/02/06 10:16:49;;;;;;;6.00;3.00;;;;;;;3.55;67.62;98043.42;220504;1273;22676;-72
2022/02/06 10:21:51;;;;;;;4.20;2.10;;;;;;;3.60;67.37;98036.75;220439;1273;22708;-72
2022/02/06 10:32:18;;;;;;;6.10;2.60;;;;;;;3.70;67.58;98017.06;220331;1273;22551;-72
2022/02/06 10:37:29;;;;;;;5.80;2.30;;;;;;;3.77;67.88;98008.92;220304;1273;22594;-72
2022/02/06 10:42:37;;;;;;;8.70;3.10;;;;;;;3.84;67.73;97998.77;220231;1273;22570;-72
2022/02/06 10:47:47;;;;;;;6.90;3.00;;;;;;;3.92;67.99;97974.61;220248;1273;22684;-72
2022/02/06 10:52:51;;;;;;;5.20;3.00;;;;;;;3.97;68.15;97968.14;220466;1273;25445;-72
2022/02/06 10:57:59;;;;;;;5.30;3.30;;;;;;;3.97;68.42;97963.16;220424;1273;22784;-72
2022/02/06 11:03:30;;;;;;;6.40;3.10;;;;;;;3.93;68.87;97951.24;220409;1273;22549;-73
2022/02/06 11:08:36;;;;;;;6.70;3.30;;;;;;;3.89;69.15;97953.66;220182;1273;234579;-71
2022/02/06 11:13:49;;;;;;;4.10;2.30;;;;;;;3.87;69.47;97944.17;220156;1274;22664;-71
2022/02/06 11:18:56;;;;;;;6.60;3.20;;;;;;;3.94;69.72;97939.41;220413;1273;22544;-72
2022/02/06 11:24:06;;;;;;;7.20;3.40;;;;;;;4.02;69.85;97936.34;220388;1273;25312;-72
2022/02/06 11:29:10;;;;;;;5.80;3.30;;;;;;;4.01;69.77;97925.48;220325;1273;23513;-72
2022/02/06 11:34:18;;;;;;;7.80;4.60;;;;;;;4.01;70.22;97924.30;220462;1273;23214;-72
2022/02/06 11:45:36;;;;;;;8.20;4.40;;;;;;;3.92;71.24;97923.67;220244;1273;23366;-72
2022/02/06 11:50:50;;;;;;;7.10;3.20;;;;;;;3.89;71.46;97915.56;220690;1273;25375;-71
2022/02/06 11:56:34;;;;;;;5.70;2.90;;;;;;;3.83;71.68;97914.51;220840;1273;26548;-72
2022/02/06 12:01:43;;;;;;;4.90;3.00;;;;;;;3.78;71.33;97901.31;220642;1273;24247;-72
2022/02/06 12:06:46;;;;;;;6.60;3.10;;;;;;;3.75;71.32;97898.61;220617;1273;22477;-72
2022/02/06 12:12:09;;;;;;;5.90;3.00;;;;;;;3.77;71.30;97891.49;220420;1273;22578;-72
2022/02/06 12:22:49;;;;;;;6.30;2.70;;;;;;;3.84;70.52;97865.27;220240;1274;24242;-72
2022/02/06 12:28:16;;;;;;;4.70;2.90;;;;;;;3.82;69.87;97853.88;220288;1273;23473;-72
2022/02/06 12:33:32;;;;;;;6.90;2.50;;;;;;;3.84;69.67;97850.65;220507;1273;22578;-73
2022/02/06 12:38:34;;;;;;;5.90;2.50;;;;;;;3.93;69.17;97846.83;220451;1273;22601;-72
2022/02/06 12:43:50;;;;;;;8.00;2.90;;;;;;;4.03;69.06;97837.59;220435;1273;22615;-74
2022/02/06 12:49:00;;;;;;;3.50;2.50;;;;;;;4.19;69.02;97827.64;220461;1273;23631;-72
2022/02/06 12:54:08;;;;;;;6.20;3.00;;;;;;;4.35;69.16;97818.14;220431;1273;22598;-72
2022/02/06 12:59:22;;;;;;;6.40;2.70;;;;;;;4.41;68.59;97807.25;220448;1273;26120;-72
2022/02/06 13:04:28;;;;;;;5.30;2.30;;;;;;;4.33;69.56;97800.60;220479;1273;24216;-72
2022/02/06 13:09:38;;;;;;;5.30;2.30;;;;;;;4.21;70.76;97796.89;220519;1273;22692;-71
2022/02/06 13:36:24;;;;;;;5.10;2.70;;;;;;;4.06;72.03;97747.69;220190;1273;25376;-72
2022/02/06 13:41:34;;;;;;;4.60;2.50;;;;;;;4.03;72.22;97743.45;220143;1273;22572;-71
2022/02/06 13:46:42;;;;;;;6.00;2.80;;;;;;;3.99;72.63;97733.13;220320;1273;24396;-73
2022/02/06 13:51:50;;;;;;;7.20;3.10;;;;;;;3.93;72.63;97725.46;220291;1273;23107;-72
2022/02/06 13:57:07;;;;;;;6.60;3.20;;;;;;;3.93;72.45;97722.60;220325;1273;24228;-73
2022/02/06 14:02:15;;;;;;;6.90;2.80;;;;;;;3.95;72.42;97721.48;220305;1273;22651;-72
2022/02/06 14:07:22;;;;;;;5.90;3.00;;;;;;;4.00;72.43;97717.34;220435;1273;24257;-73
2022/02/06 14:12:25;;;;;;;5.10;2.90;;;;;;;4.08;71.96;97701.29;220384;1273;22704;-73
2022/02/06 14:17:35;;;;;;;5.50;2.60;;;;;;;4.15;71.67;97684.61;220432;1273;24815;-72
2022/02/06 14:22:53;;;;;;;5.90;3.00;;;;;;;4.23;71.26;97677.63;220353;1273;24251;-71
2022/02/06 14:27:57;;;;;;;6.70;2.80;;;;;;;4.33;70.97;97663.85;220569;1273;22920;-72
2022/02/06 14:33:24;;;;;;;5.40;2.30;;;;;;;4.42;70.63;97648.98;220521;1273;25375;-71
2022/02/06 14:39:04;;;;;;;8.00;3.00;;;;;;;4.49;69.53;97636.21;220437;1273;22646;-72
2022/02/06 14:44:11;;;;;;;9.00;3.20;;;;;;;4.56;68.85;97612.13;220466;1273;22547;-73
2022/02/06 14:49:17;;;;;;;5.80;2.40;;;;;;;4.59;68.89;97599.64;220310;1273;23359;-71
2022/02/06 14:54:46;;;;;;;6.80;2.60;;;;;;;4.60;69.09;97589.98;220336;1273;22570;-72
2022/02/06 14:59:56;;;;;;;4.10;2.40;;;;;;;4.62;68.53;97584.02;220541;1273;22499;-72
2022/02/06 15:04:58;;;;;;;4.10;2.00;;;;;;;4.62;68.76;97577.60;220600;1273;22639;-71
2022/02/06 15:10:04;;;;;;;5.10;2.30;;;;;;;4.62;68.04;97567.63;220546;1273;22541;-72
2022/02/06 15:15:11;;;;;;;5.60;2.20;;;;;;;4.61;68.48;97545.94;220471;1273;23224;-72
2022/02/06 15:20:13;;;;;;;4.10;2.20;;;;;;;4.58;68.25;97536.10;220392;1273;22542;-73
2022/02/06 15:25:16;;;;;;;5.60;2.50;;;;;;;4.53;68.89;97533.39;220267;1273;22569;-73
2022/02/06 15:30:20;;;;;;;8.30;2.10;;;;;;;4.49;69.02;97530.45;220258;1273;22624;-73
2022/02/06 15:35:23;;;;;;;4.50;2.60;;;;;;;4.47;69.43;97516.36;220268;1273;22577;-72
2022/02/06 15:40:29;;;;;;;3.10;1.80;;;;;;;4.39;69.63;97509.79;220601;1273;24912;-71
2022/02/06 15:45:32;;;;;;;5.30;1.80;;;;;;;4.32;70.49;97500.38;220451;1273;24212;-72
2022/02/06 15:50:39;;;;;;;3.50;1.70;;;;;;;4.25;71.15;97497.94;220377;1273;22854;-73
2022/02/06 15:55:41;;;;;;;5.40;2.00;;;;;;;4.21;71.57;97488.69;220618;1273;25334;-72
2022/02/06 16:00:43;;;;;;;3.40;2.10;;;;;;;4.15;72.10;97475.91;220508;1273;22591;-72
2022/02/06 16:05:51;;;;;;;3.90;2.20;;;;;;;4.10;72.46;97462.54;220549;1273;24464;-73
2022/02/06 16:10:55;;;;;;;7.60;2.10;;;;;;;4.03;73.14;97448.48;220686;1273;22555;-74
2022/02/06 16:16:00;;;;;;;5.00;1.50;;;;;;;3.96;73.61;97436.33;220473;1273;22775;-72
2022/02/06 16:21:25;;;;;;;5.30;2.00;;;;;;;3.88;74.37;97424.56;220474;1273;22613;-72
2022/02/06 16:26:33;;;;;;;4.70;1.50;;;;;;;3.82;75.02;97418.99;220549;1273;22722;-73
2022/02/06 16:31:38;;;;;;;4.70;2.50;;;;;;;3.75;75.54;97418.78;220495;1273;22569;-73
2022/02/06 16:36:44;;;;;;;3.70;2.10;;;;;;;3.70;75.83;97410.50;220529;1273;23545;-73
2022/02/06 16:41:57;;;;;;;3.70;1.50;;;;;;;3.67;76.12;97404.85;220691;1273;25396;-73
2022/02/06 16:47:07;;;;;;;3.60;1.70;;;;;;;3.64;76.48;97394.49;220748;1273;25253;-72
2022/02/06 16:52:12;;;;;;;2.60;1.70;;;;;;;3.62;76.72;97376.51;220931;1273;24000;-72
2022/02/06 16:57:19;;;;;;;3.20;1.70;;;;;;;3.59;77.10;97364.39;220588;1273;25406;-72
2022/02/06 17:02:34;;;;;;;;;;;;;;;3.57;77.43;97358.16;220396;1273;25369;-72
2022/02/06 17:08:02;;;;;;;4.90;1.70;;;;;;;3.52;77.55;97345.39;220447;1273;24149;-73
2022/02/06 17:13:23;;;;;;;5.40;1.90;;;;;;;3.47;78.03;97333.05;220759;1273;22552;-73
2022/02/06 17:18:26;;;;;;;3.30;2.10;;;;;;;3.42;78.85;97328.78;220676;1273;23040;-73
2022/02/06 17:23:41;;;;;;;4.50;1.70;;;;;;;3.39;79.00;97309.42;220742;1273;25419;-72
2022/02/06 17:29:07;;;;;;;5.80;2.20;;;;;;;3.37;78.87;97308.08;220360;1273;22570;-73
2022/02/06 17:34:12;;;;;;;4.60;1.80;;;;;;;3.36;79.24;97287.75;220689;1273;22566;-73
2022/02/06 17:39:17;;;;;;;3.40;2.00;;;;;;;3.37;79.37;97282.55;220499;1274;24248;-73
2022/02/06 17:44:22;;;;;;;4.10;2.10;;;;;;;3.39;79.59;97262.95;220720;1273;24381;-72
2022/02/06 17:49:32;;;;;;;5.80;2.20;;;;;;;3.39;79.76;97254.58;220446;1273;22554;-72
2022/02/06 17:54:49;;;;;;;3.30;2.00;;;;;;;3.39;80.16;97243.35;220600;1273;24547;-73
2022/02/06 18:00:23;;;;;;;4.00;2.50;;;;;;;3.40;80.52;97224.02;220543;1273;22575;-72
2022/02/06 18:05:41;;;;;;;;;;;;;;;;;;;;;
2022/02/06 18:11:06;;;;;;;5.60;2.20;;;;;;;3.48;80.35;97187.99;219922;1276;24289;-73
2022/02/06 18:16:29;;;;;;;5.30;1.90;;;;;;;3.53;80.19;97176.12;220393;1273;22649;-72
2022/02/06 18:21:43;;;;;;;4.40;2.00;;;;;;;3.58;80.25;97171.90;220534;1273;22548;-72
2022/02/06 18:27:15;;;;;;;4.70;1.40;;;;;;;3.64;80.22;97159.80;220007;1274;22571;-73
2022/02/06 18:33:04;;;;;;;3.80;1.60;;;;;;;3.70;79.72;97127.28;220414;1273;25447;-73
2022/02/06 18:38:09;;;;;;;3.70;1.70;;;;;;;3.72;79.58;97110.20;220478;1273;24268;-72
2022/02/06 18:43:15;;;;;;;5.70;2.10;;;;;;;3.75;79.34;97095.02;220223;1273;22559;-72
2022/02/06 18:48:19;;;;;;;1.60;1.20;;;;;;;3.75;79.14;97085.04;220540;1273;22572;-72
2022/02/06 18:53:50;;;;;;;3.40;1.60;;;;;;;3.75;78.91;97089.23;220683;1273;22682;-74
2022/02/06 18:59:05;;;;;;;4.10;1.80;;;;;;;3.81;78.56;97074.75;220150;1273;22519;-73
2022/02/06 19:04:17;;;;;;;4.30;2.00;;;;;;;3.82;78.49;97074.84;220474;1273;24249;-72
2022/02/06 19:09:41;;;;;;;4.60;2.00;;;;;;;3.83;78.30;97051.88;220558;1273;22540;-73
2022/02/06 19:14:52;;;;;;;3.70;1.70;;;;;;;3.85;78.15;97039.61;220345;1274;25870;-71
2022/02/06 19:20:09;;;;;;;3.40;1.70;;;;;;;3.87;77.91;97034.83;220162;1274;22737;-72
2022/02/06 19:25:14;;;;;;;24.00;13.50;;;;;;;3.87;78.14;97028.94;220488;1273;22566;-73
2022/02/06 19:30:28;;;;;;;3.10;1.80;;;;;;;3.91;77.99;97027.02;220395;1273;24349;-73
2022/02/06 19:36:00;;;;;;;3.70;1.80;;;;;;;3.95;77.78;97010.98;220011;1275;22733;-73
2022/02/06 19:41:44;;;;;;;3.80;2.00;;;;;;;3.96;77.89;97002.48;220224;1275;22587;-73
2022/02/06 19:46:50;;;;;;;4.60;1.90;;;;;;;3.95;77.84;97002.49;220467;1273;22618;-73
2022/02/06 19:51:57;;;;;;;3.80;2.00;;;;;;;3.92;77.67;96999.19;220451;1273;24258;-73
2022/02/06 19:57:09;;;;;;;4.50;1.60;;;;;;;3.90;77.90;96988.63;220474;1273;24782;-72
2022/02/06 20:02:37;;;;;;;3.60;1.80;;;;;;;3.90;77.92;96982.05;220359;1274;24285;-73
2022/02/06 20:07:51;;;;;;;2.50;1.50;;;;;;;3.88;78.10;96975.83;220628;1273;25293;-73
2022/02/06 20:13:03;;;;;;;2.80;1.60;;;;;;;3.87;78.06;96983.36;220552;1274;22610;-73
2022/02/06 20:18:19;;;;;;;3.70;1.50;;;;;;;3.86;78.13;96967.98;220655;1274;22566;-72
2022/02/06 20:24:10;;;;;;;15.40;7.90;;;;;;;3.87;78.72;96948.67;220394;1274;23052;-73
2022/02/06 20:29:14;;;;;;;3.00;1.70;;;;;;;3.94;80.09;96947.40;220602;1274;22542;-72
2022/02/06 20:35:03;;;;;;;3.10;1.80;;;;;;;3.84;79.91;96934.30;220336;1274;22639;-73
2022/02/06 20:40:12;;;;;;;3.00;2.10;;;;;;;3.72;80.68;96932.84;220338;1273;25424;-72
2022/02/06 20:45:24;;;;;;;4.20;1.70;;;;;;;3.69;80.88;96922.67;220825;1273;25275;-73
2022/02/06 20:50:43;;;;;;;2.50;1.80;;;;;;;3.69;80.92;96920.30;220457;1274;25619;-74
2022/02/06 20:56:12;;;;;;;4.10;1.70;;;;;;;3.68;80.99;96911.84;220489;1274;22545;-73
2022/02/06 21:01:19;;;;;;;4.80;1.70;;;;;;;3.69;81.06;96907.77;220477;1274;22580;-72
2022/02/06 21:06:33;;;;;;;3.00;1.60;;;;;;;3.72;81.04;96901.07;220339;1274;24700;-72
2022/02/06 21:11:53;;;;;;;3.10;1.90;;;;;;;3.77;81.01;96899.89;220129;1273;25266;-73
2022/02/06 21:17:14;;;;;;;4.00;1.80;;;;;;;3.82;81.02;96888.15;220003;1274;23168;-73
2022/02/06 21:22:53;;;;;;;3.40;1.40;;;;;;;3.88;81.32;96882.50;220467;1274;25105;-73
2022/02/06 21:28:40;;;;;;;2.70;1.40;;;;;;;3.94;80.99;96868.88;220328;1274;24386;-72
2022/02/06 21:34:05;;;;;;;3.20;1.40;;;;;;;4.01;81.28;96861.41;220263;1274;22592;-73
2022/02/06 21:39:47;;;;;;;;;;;;;;;;;;;;;
2022/02/06 21:45:02;;;;;;;3.10;1.40;;;;;;;4.12;81.15;96852.45;220347;1274;25350;-72
2022/02/06 21:50:53;;;;;;;2.90;1.50;;;;;;;4.16;81.08;96838.55;220253;1274;24456;-73
2022/02/06 21:56:31;;;;;;;2.00;1.50;;;;;;;4.17;81.10;96828.66;220344;1274;22552;-73
2022/02/06 22:02:45;;;;;;;2.60;1.30;;;;;;;4.18;81.10;96820.75;220367;1273;22567;-72
2022/02/06 22:22:49;;;;;;;3.20;1.50;;;;;;;4.26;81.30;96806.21;219909;1276;23348;-73
2022/02/06 22:39:13;;;;;;;;;;;;;;;;;;;;;
2022/02/06 22:50:59;;;;;;;3.30;1.50;;;;;;;4.35;81.05;96825.46;220378;1273;25267;-72
2022/02/06 22:57:31;;;;;;;;;;;;;;;;;;;;;
2022/02/06 23:03:36;;;;;;;;;;;;;;;;;;;;;
2022/02/06 23:09:33;;;;;;;3.50;1.60;;;;;;;4.32;80.75;96806.50;216706;1273;5444057;-72
2022/02/06 23:15:32;;;;;;;3.30;1.40;;;;;;;4.33;80.66;96802.98;220436;1273;25473;-72
2022/02/06 23:28:38;;;;;;;;;;;;;;;;;;;;;
2022/02/06 23:34:44;;;;;;;2.70;1.20;;;;;;;4.43;80.61;96779.33;220502;1273;22555;-72
2022/02/06 23:40:40;;;;;;;2.90;1.20;;;;;;;4.48;80.59;96768.47;220651;1273;22586;-73
2022/02/06 23:46:37;;;;;;;3.30;1.20;;;;;;;4.52;80.22;96764.67;220332;1274;24387;-73
2022/02/06 23:58:20;;;;;;;3.40;1.20;;;;;;;4.59;80.03;96753.58;220466;1273;22585;-72
